Time;durP1;ratioP1;P1;durP2;ratioP2;P2;SDS_P1;SDS_P2;PMS_P1;PMS_P2;Temp;Humidity;BMP_temperature;BMP_pressure;BME280_temperature;BME280_humidity;BME280_pressure;Samples;Min_cycle;Max_cycle;Signal;HPM_P1;HPM_P2
2021/08/16 00:01:29;;;;;;;6.35;3.70;;;;;;;16.26;61.79;96641.25;5104604;28;20055;-61
2021/08/16 00:03:55;;;;;;;7.70;4.18;;;;;;;16.20;61.90;96638.97;5096092;28;20104;-62
2021/08/16 00:06:20;;;;;;;7.13;3.95;;;;;;;16.15;61.94;96637.47;5112286;28;20160;-61
2021/08/16 00:08:46;;;;;;;5.32;3.38;;;;;;;16.12;62.18;96631.50;5093201;28;20047;-61
2021/08/16 00:11:12;;;;;;;6.63;3.95;;;;;;;16.17;62.22;96635.56;5093475;28;20031;-61
2021/08/16 00:13:38;;;;;;;6.15;3.80;;;;;;;16.22;61.76;96637.09;5095323;28;20470;-61
2021/08/16 00:16:05;;;;;;;5.35;3.83;;;;;;;16.19;62.16;96626.72;5093142;28;20120;-62
2021/08/16 00:18:31;;;;;;;5.13;3.35;;;;;;;16.18;62.15;96623.22;5086021;28;20035;-62
2021/08/16 00:20:57;;;;;;;4.65;3.60;;;;;;;16.13;62.43;96627.91;5073467;28;20028;-62
2021/08/16 00:23:23;;;;;;;4.90;3.70;;;;;;;16.05;62.50;96633.66;5074311;28;20104;-62
2021/08/16 00:25:48;;;;;;;6.45;3.90;;;;;;;16.00;62.64;96626.03;5075632;28;20103;-63
2021/08/16 00:28:14;;;;;;;5.70;3.78;;;;;;;15.99;62.44;96621.69;5078920;28;20128;-61
2021/08/16 00:30:40;;;;;;;6.20;3.90;;;;;;;15.92;62.61;96617.66;5074593;28;20423;-60
2021/08/16 00:33:05;;;;;;;4.93;3.60;;;;;;;15.85;62.83;96611.91;5074315;28;20021;-62
2021/08/16 00:35:31;;;;;;;7.97;3.55;;;;;;;15.85;62.65;96614.53;5080255;28;20012;-61
2021/08/16 00:37:57;;;;;;;6.90;3.72;;;;;;;15.81;62.74;96610.38;5078458;28;20413;-63
2021/08/16 00:40:22;;;;;;;4.55;3.40;;;;;;;15.78;63.02;96607.94;5087649;28;20032;-62
2021/08/16 00:42:48;;;;;;;9.15;3.40;;;;;;;15.75;62.66;96603.66;5085544;28;20111;-63
2021/08/16 00:45:14;;;;;;;4.93;3.35;;;;;;;15.73;62.76;96602.91;5081671;28;20031;-62
2021/08/16 00:47:40;;;;;;;6.93;3.67;;;;;;;15.74;62.81;96590.59;5075278;28;20029;-63
2021/08/16 00:50:08;;;;;;;7.28;3.92;;;;;;;15.71;62.47;96596.03;5074583;28;20035;-62
2021/08/16 00:52:34;;;;;;;3.95;2.53;;;;;;;15.66;62.80;96589.22;5093780;28;20484;-62
2021/08/16 00:55:00;;;;;;;5.47;3.42;;;;;;;15.64;62.72;96598.16;5073922;28;20032;-61
2021/08/16 00:57:29;;;;;;;5.13;3.28;;;;;;;15.57;62.85;96596.84;5074967;28;20674;-63
2021/08/16 00:59:54;;;;;;;5.72;3.72;;;;;;;15.56;63.02;96600.41;5093970;28;20061;-61
2021/08/16 01:02:20;;;;;;;9.18;3.33;;;;;;;15.53;62.96;96588.22;5076195;28;20443;-62
2021/08/16 01:04:46;;;;;;;4.65;2.97;;;;;;;15.57;62.56;96591.56;5074554;28;20020;-63
2021/08/16 01:07:12;;;;;;;5.75;3.42;;;;;;;15.57;62.58;96597.69;5078767;28;20027;-63
2021/08/16 01:09:37;;;;;;;4.90;3.00;;;;;;;15.60;62.46;96596.66;5089004;28;20390;-62
2021/08/16 01:12:04;;;;;;;6.18;3.38;;;;;;;15.51;62.68;96598.88;5093928;28;20118;-62
2021/08/16 01:14:29;;;;;;;4.55;3.05;;;;;;;15.38;63.12;96597.91;5093927;28;20036;-62
2021/08/16 01:16:55;;;;;;;4.45;3.10;;;;;;;15.26;63.05;96588.91;5093763;28;20028;-61
2021/08/16 01:19:22;;;;;;;5.40;3.15;;;;;;;15.27;63.02;96593.22;5094126;28;20024;-61
2021/08/16 01:21:47;;;;;;;4.15;3.22;;;;;;;15.25;63.25;96601.22;5093695;28;20383;-62
2021/08/16 01:24:15;;;;;;;9.88;3.35;;;;;;;15.21;63.21;96589.16;5107766;28;20030;-61
2021/08/16 01:26:40;;;;;;;5.30;3.05;;;;;;;15.17;63.54;96584.97;5114026;28;20040;-61
2021/08/16 01:29:18;;;;;;;6.28;3.28;;;;;;;15.16;63.47;96585.91;5103224;28;20028;-61
2021/08/16 01:31:44;;;;;;;6.93;3.55;;;;;;;15.11;63.44;96580.06;5093625;28;20478;-61
2021/08/16 01:34:09;;;;;;;6.20;3.05;;;;;;;15.14;63.19;96585.16;5093614;28;20028;-61
2021/08/16 01:36:35;;;;;;;5.28;3.25;;;;;;;15.12;63.44;96587.03;5098512;28;20072;-61
2021/08/16 01:39:02;;;;;;;5.28;3.22;;;;;;;15.05;63.61;96583.03;5108303;28;20031;-61
2021/08/16 01:41:31;;;;;;;8.13;3.33;;;;;;;15.02;63.69;96587.53;5093422;28;20113;-61
2021/08/16 01:43:57;;;;;;;5.28;3.42;;;;;;;14.95;64.06;96586.16;5094384;28;20036;-61
2021/08/16 01:46:24;;;;;;;5.25;3.38;;;;;;;14.87;64.10;96581.31;5093334;28;20028;-60
2021/08/16 01:48:50;;;;;;;7.13;3.67;;;;;;;14.91;64.43;96577.56;5093493;28;20097;-62
2021/08/16 01:51:15;;;;;;;4.95;3.08;;;;;;;14.87;64.78;96585.75;5093890;28;20032;-61
2021/08/16 01:53:41;;;;;;;6.18;3.40;;;;;;;14.83;64.90;96586.84;5102762;28;20020;-61
2021/08/16 01:56:06;;;;;;;7.07;3.13;;;;;;;14.82;64.83;96583.38;5113560;28;20059;-61
2021/08/16 01:58:32;;;;;;;5.55;3.10;;;;;;;14.80;64.55;96584.34;5113681;28;20028;-61
2021/08/16 02:00:57;;;;;;;6.68;3.40;;;;;;;14.80;64.69;96579.09;5111364;28;20023;-61
2021/08/16 02:03:23;;;;;;;4.95;4.22;;;;;;;14.80;64.65;96585.22;5113637;28;20027;-61
2021/08/16 02:05:49;;;;;;;6.15;3.78;;;;;;;14.83;64.71;96584.19;5100635;28;20373;-61
2021/08/16 02:08:14;;;;;;;7.00;3.50;;;;;;;14.82;64.70;96585.13;5092985;28;20114;-62
2021/08/16 02:10:40;;;;;;;4.20;3.17;;;;;;;14.78;64.60;96580.03;5093945;28;20086;-61
2021/08/16 02:13:10;;;;;;;4.90;3.72;;;;;;;14.70;65.16;96587.47;5093048;28;20466;-61
2021/08/16 02:15:36;;;;;;;5.55;3.90;;;;;;;14.63;65.39;96575.59;5093063;28;20047;-61
2021/08/16 02:18:01;;;;;;;7.50;3.85;;;;;;;14.61;65.29;96582.72;5096696;28;20374;-60
2021/08/16 02:20:27;;;;;;;7.40;3.40;;;;;;;14.57;65.28;96582.00;5093394;28;20119;-62
2021/08/16 02:22:53;;;;;;;8.52;3.88;;;;;;;14.51;65.54;96577.94;5094168;28;20066;-62
2021/08/16 02:25:18;;;;;;;5.75;3.70;;;;;;;14.52;65.72;96578.78;5093000;28;20025;-61
2021/08/16 02:27:49;;;;;;;5.65;3.83;;;;;;;14.50;66.39;96584.13;5094533;28;20103;-61
2021/08/16 02:30:15;;;;;;;9.65;4.07;;;;;;;14.53;66.54;96589.25;5094348;28;20028;-61
2021/08/16 02:32:41;;;;;;;5.68;4.55;;;;;;;14.50;66.25;96586.75;5112741;28;20032;-61
2021/08/16 02:35:07;;;;;;;5.95;4.35;;;;;;;14.47;66.34;96586.94;5116892;28;20503;-61
2021/08/16 02:37:33;;;;;;;6.63;4.05;;;;;;;14.46;66.50;96590.50;5117331;28;20030;-61
2021/08/16 02:39:59;;;;;;;4.80;3.80;;;;;;;14.51;66.37;96593.72;5101307;28;20103;-61
2021/08/16 02:42:25;;;;;;;6.70;4.18;;;;;;;14.49;66.13;96586.84;5098943;28;20027;-61
2021/08/16 02:44:51;;;;;;;6.22;4.18;;;;;;;14.46;66.38;96585.22;5091561;28;20454;-61
2021/08/16 02:47:21;;;;;;;6.32;3.85;;;;;;;14.45;66.37;96590.56;5096671;28;20107;-62
2021/08/16 02:49:47;;;;;;;7.83;4.27;;;;;;;14.46;66.23;96584.38;5115097;28;20042;-61
2021/08/16 02:52:13;;;;;;;7.28;4.10;;;;;;;14.48;66.40;96590.41;5115246;28;20108;-60
2021/08/16 02:54:38;;;;;;;7.03;4.20;;;;;;;14.49;66.48;96585.06;5116693;28;20111;-61
2021/08/16 02:57:04;;;;;;;8.40;4.03;;;;;;;14.52;66.30;96591.94;5116583;28;20481;-61
2021/08/16 02:59:29;;;;;;;6.35;3.78;;;;;;;14.51;66.70;96591.09;5103895;28;20081;-61
2021/08/16 03:01:55;;;;;;;7.07;4.10;;;;;;;14.44;67.21;96581.81;5110596;28;20080;-61
2021/08/16 03:04:20;;;;;;;7.63;4.43;;;;;;;14.45;66.51;96574.78;5108718;28;20020;-61
2021/08/16 03:06:46;;;;;;;6.93;4.47;;;;;;;14.45;66.24;96572.16;5096370;28;20032;-61
2021/08/16 03:09:11;;;;;;;5.32;4.22;;;;;;;14.47;66.08;96573.75;5108294;28;20048;-61
2021/08/16 03:11:37;;;;;;;8.02;3.92;;;;;;;14.47;66.03;96567.63;5099828;28;20056;-61
2021/08/16 03:14:03;;;;;;;6.30;4.25;;;;;;;14.46;66.04;96571.22;5097169;28;20107;-61
2021/08/16 03:16:28;;;;;;;5.13;4.13;;;;;;;14.39;66.12;96576.81;5096196;28;20024;-61
2021/08/16 03:18:54;;;;;;;9.35;5.07;;;;;;;14.39;66.29;96576.81;5107517;28;20151;-61
2021/08/16 03:21:19;;;;;;;8.40;4.28;;;;;;;14.41;66.97;96579.34;5116390;28;20023;-61
2021/08/16 03:23:45;;;;;;;9.05;4.18;;;;;;;14.46;66.23;96582.59;5111073;28;20028;-61
2021/08/16 03:26:10;;;;;;;5.57;3.65;;;;;;;14.42;65.92;96582.84;5095987;28;20016;-60
2021/08/16 03:28:37;;;;;;;5.65;3.97;;;;;;;14.37;66.45;96576.06;5104840;28;20031;-62
2021/08/16 03:31:02;;;;;;;5.60;4.72;;;;;;;14.32;67.01;96575.44;5116373;28;20358;-61
2021/08/16 03:33:28;;;;;;;7.28;3.80;;;;;;;14.31;67.11;96578.13;5109848;28;20169;-61
2021/08/16 03:35:53;;;;;;;7.68;3.90;;;;;;;14.27;66.98;96583.56;5098788;28;20073;-61
2021/08/16 03:38:19;;;;;;;8.27;4.38;;;;;;;14.29;67.00;96586.09;5095486;28;20096;-60
2021/08/16 03:40:45;;;;;;;5.25;3.92;;;;;;;14.27;67.47;96583.56;5094771;28;20147;-62
2021/08/16 03:43:10;;;;;;;7.47;4.63;;;;;;;14.31;67.20;96580.78;5095165;28;20052;-61
2021/08/16 03:45:36;;;;;;;6.88;4.18;;;;;;;14.36;67.27;96584.84;5096641;28;20039;-61
2021/08/16 03:48:02;;;;;;;6.18;4.40;;;;;;;14.46;67.07;96598.41;5101588;28;20486;-61
2021/08/16 03:50:27;;;;;;;8.02;4.80;;;;;;;14.55;66.68;96607.59;5111149;28;20169;-61
2021/08/16 03:52:53;;;;;;;4.78;3.80;;;;;;;14.60;66.60;96605.53;5101276;28;20024;-61
2021/08/16 03:55:18;;;;;;;5.80;3.58;;;;;;;14.64;66.64;96606.22;5102307;28;20374;-61
2021/08/16 03:57:44;;;;;;;6.05;4.45;;;;;;;14.69;66.38;96606.81;5095342;28;20405;-60
2021/08/16 04:00:11;;;;;;;10.98;3.92;;;;;;;14.69;66.90;96598.94;5095360;28;20103;-61
2021/08/16 04:02:40;;;;;;;6.32;4.07;;;;;;;14.88;66.67;96596.22;5096543;28;20035;-61
2021/08/16 04:05:06;;;;;;;6.45;3.63;;;;;;;15.45;64.86;96603.66;5115591;28;20066;-61
2021/08/16 04:07:31;;;;;;;8.85;3.85;;;;;;;16.04;62.90;96603.78;5114715;28;20541;-62
2021/08/16 04:09:57;;;;;;;10.27;4.00;;;;;;;16.61;61.45;96597.78;5113907;28;20044;-62
2021/08/16 04:12:23;;;;;;;6.60;3.65;;;;;;;17.13;60.08;96590.25;5114039;28;20023;-61
2021/08/16 04:14:49;;;;;;;13.48;4.55;;;;;;;17.63;58.54;96601.13;5114153;28;20023;-60
2021/08/16 04:17:14;;;;;;;6.82;3.90;;;;;;;18.08;57.17;96596.44;5114145;28;20077;-60
2021/08/16 04:19:40;;;;;;;12.60;3.88;;;;;;;18.60;55.19;96589.38;5114301;28;20037;-62
2021/08/16 04:22:06;;;;;;;7.00;4.00;;;;;;;19.01;54.65;96592.72;5115014;28;20023;-61
2021/08/16 04:24:32;;;;;;;5.20;3.28;;;;;;;19.40;53.54;96600.56;5115397;28;20058;-62
2021/08/16 04:26:57;;;;;;;7.82;3.78;;;;;;;19.83;52.51;96596.53;5115403;28;20384;-60
2021/08/16 04:29:23;;;;;;;5.15;3.38;;;;;;;20.19;51.75;96595.72;5115067;28;20020;-62
2021/08/16 04:31:49;;;;;;;6.50;3.70;;;;;;;20.61;51.03;96589.00;5115120;28;20024;-60
2021/08/16 04:34:14;;;;;;;6.55;3.88;;;;;;;21.00;50.46;96586.84;5115147;28;20073;-61
2021/08/16 04:36:40;;;;;;;4.60;3.40;;;;;;;21.37;49.51;96582.19;5115117;28;20059;-61
2021/08/16 04:39:05;;;;;;;6.20;3.65;;;;;;;21.63;49.08;96588.03;5115069;28;20430;-63
2021/08/16 04:41:31;;;;;;;9.68;3.97;;;;;;;21.96;47.79;96580.91;5114946;28;20030;-63
2021/08/16 04:43:56;;;;;;;6.25;3.85;;;;;;;22.14;47.91;96572.31;5114977;28;20535;-61
2021/08/16 04:46:22;;;;;;;7.85;4.45;;;;;;;22.51;47.31;96578.16;5114845;28;20142;-62
2021/08/16 04:48:48;;;;;;;12.25;3.92;;;;;;;22.90;46.72;96575.66;5114777;28;20019;-61
2021/08/16 04:51:14;;;;;;;12.82;4.03;;;;;;;23.31;46.12;96580.13;5114833;28;20019;-60
2021/08/16 04:53:39;;;;;;;14.73;4.72;;;;;;;23.65;45.75;96587.78;5113894;28;20024;-62
2021/08/16 04:56:05;;;;;;;7.47;3.85;;;;;;;24.10;44.68;96586.34;5114847;28;20031;-60
2021/08/16 04:58:30;;;;;;;5.97;3.80;;;;;;;24.50;44.23;96585.47;5114776;28;20112;-63
2021/08/16 05:00:56;;;;;;;6.38;3.30;;;;;;;24.86;44.00;96581.09;5114597;28;20055;-61
2021/08/16 05:03:21;;;;;;;6.30;4.15;;;;;;;25.26;43.00;96588.13;5114617;28;20090;-62
2021/08/16 05:05:49;;;;;;;5.88;3.40;;;;;;;25.57;42.09;96601.16;5114485;28;20019;-61
2021/08/16 05:08:15;;;;;;;6.53;3.83;;;;;;;25.78;41.79;96594.69;5114362;28;20020;-63
2021/08/16 05:10:41;;;;;;;6.78;3.85;;;;;;;26.04;42.05;96597.44;5114274;28;20040;-61
2021/08/16 05:13:07;;;;;;;6.38;3.20;;;;;;;26.27;41.45;96594.25;5114497;28;20047;-61
2021/08/16 05:15:32;;;;;;;6.18;3.72;;;;;;;26.39;40.89;96602.91;5114249;28;20058;-60
2021/08/16 05:18:00;;;;;;;4.68;2.85;;;;;;;26.59;40.73;96605.38;5114234;28;20023;-63
2021/08/16 05:20:26;;;;;;;6.07;3.53;;;;;;;26.89;41.15;96595.16;5114141;28;20030;-62
2021/08/16 05:22:52;;;;;;;5.60;3.80;;;;;;;27.27;40.57;96596.69;5114185;28;20019;-60
2021/08/16 05:25:18;;;;;;;5.55;3.03;;;;;;;27.57;40.67;96595.22;5095941;28;20051;-63
2021/08/16 05:27:46;;;;;;;5.43;3.75;;;;;;;27.92;38.17;96607.72;5114036;28;20027;-62
2021/08/16 05:30:12;;;;;;;7.68;3.85;;;;;;;28.22;35.72;96597.31;5114027;28;20089;-62
2021/08/16 05:32:38;;;;;;;6.93;3.95;;;;;;;28.52;36.55;96597.66;5113958;28;20016;-62
2021/08/16 05:35:05;;;;;;;5.43;4.07;;;;;;;28.85;37.02;96594.03;5114031;28;20401;-61
2021/08/16 05:37:30;;;;;;;7.80;4.05;;;;;;;29.16;35.10;96589.75;5095833;28;20447;-61
2021/08/16 05:39:56;;;;;;;6.93;3.60;;;;;;;29.46;37.25;96590.78;5113892;28;20030;-62
2021/08/16 05:42:22;;;;;;;5.38;3.85;;;;;;;29.73;36.32;96595.84;5113843;28;20110;-62
2021/08/16 05:44:47;;;;;;;4.97;3.78;;;;;;;29.88;34.27;96591.38;5113693;28;20027;-61
2021/08/16 05:47:13;;;;;;;11.80;3.97;;;;;;;29.90;33.24;96583.09;5113846;28;20377;-62
2021/08/16 05:49:38;;;;;;;4.47;3.20;;;;;;;29.89;34.67;96584.94;5113790;28;20153;-61
2021/08/16 05:52:04;;;;;;;5.10;3.67;;;;;;;29.98;36.24;96591.13;5113792;28;20051;-63
2021/08/16 05:54:30;;;;;;;5.78;3.80;;;;;;;30.35;36.72;96590.50;5113673;28;20028;-61
2021/08/16 05:56:55;;;;;;;4.18;3.65;;;;;;;30.71;35.22;96589.81;5113578;28;20026;-63
2021/08/16 05:59:21;;;;;;;5.43;3.72;;;;;;;31.01;35.19;96589.84;5113636;28;20175;-63
2021/08/16 06:01:46;;;;;;;6.63;4.03;;;;;;;31.32;34.73;96589.78;5113659;28;20461;-61
2021/08/16 06:04:12;;;;;;;7.22;4.38;;;;;;;31.69;34.49;96589.81;5113572;28;20068;-62
2021/08/16 06:06:38;;;;;;;6.65;4.20;;;;;;;31.94;34.27;96587.59;5113505;28;20016;-61
2021/08/16 06:09:04;;;;;;;5.10;3.85;;;;;;;32.17;33.24;96594.66;5113089;28;20040;-62
2021/08/16 06:11:30;;;;;;;5.22;3.97;;;;;;;32.34;33.53;96591.66;5113463;28;20038;-63
2021/08/16 06:13:56;;;;;;;5.38;3.65;;;;;;;32.59;32.71;96589.38;5113540;28;20096;-61
2021/08/16 06:16:22;;;;;;;9.93;3.92;;;;;;;32.78;32.25;96585.13;5113413;28;20434;-61
2021/08/16 06:18:48;;;;;;;7.32;4.10;;;;;;;33.05;32.14;96581.78;5113405;28;20020;-63
2021/08/16 06:21:14;;;;;;;11.05;3.90;;;;;;;33.14;29.29;96579.72;5113671;28;20016;-63
2021/08/16 06:23:39;;;;;;;5.70;3.65;;;;;;;33.06;28.79;96575.31;5113454;28;20027;-63
2021/08/16 06:26:05;;;;;;;7.47;3.53;;;;;;;33.18;27.78;96589.09;5113344;28;20012;-63
2021/08/16 06:28:31;;;;;;;4.25;3.75;;;;;;;33.35;27.02;96586.06;5113403;28;20020;-62
2021/08/16 06:30:57;;;;;;;9.95;3.85;;;;;;;33.60;26.33;96588.22;5113267;28;20073;-63
2021/08/16 06:33:23;;;;;;;9.98;3.90;;;;;;;33.73;26.69;96588.25;5113246;28;20023;-61
2021/08/16 06:35:49;;;;;;;8.05;3.55;;;;;;;33.73;26.81;96587.41;5113330;28;20496;-63
2021/08/16 06:38:22;;;;;;;4.93;3.10;;;;;;;33.95;27.71;96588.06;5113421;28;20436;-63
2021/08/16 06:40:56;;;;;;;7.40;3.80;;;;;;;33.75;25.10;96590.75;5113407;28;20437;-63
2021/08/16 06:43:23;;;;;;;8.13;3.35;;;;;;;33.55;25.28;96591.50;5113183;28;20461;-63
2021/08/16 06:45:49;;;;;;;4.10;3.13;;;;;;;33.80;24.98;96587.44;5113268;28;20024;-62
2021/08/16 06:48:16;;;;;;;9.82;3.30;;;;;;;33.91;25.67;96589.53;5113149;28;20404;-61
2021/08/16 06:50:42;;;;;;;4.82;3.03;;;;;;;33.74;25.32;96587.22;5113177;28;20031;-61
2021/08/16 06:53:11;;;;;;;5.43;3.20;;;;;;;33.69;25.80;96589.72;5113136;28;20023;-63
2021/08/16 06:55:37;;;;;;;4.40;3.30;;;;;;;33.77;26.38;96589.50;5113136;28;20104;-61
2021/08/16 06:58:03;;;;;;;7.43;4.05;;;;;;;33.72;24.61;96581.19;5113184;28;20054;-61
2021/08/16 07:00:29;;;;;;;5.28;3.17;;;;;;;33.77;24.99;96586.81;5094802;28;20047;-61
2021/08/16 07:02:54;;;;;;;5.28;3.20;;;;;;;33.87;24.10;96583.72;5113019;28;20028;-61
2021/08/16 07:05:20;;;;;;;5.50;3.38;;;;;;;33.82;24.07;96585.34;5113117;28;20030;-61
2021/08/16 07:07:47;;;;;;;6.43;3.15;;;;;;;34.12;24.58;96587.66;5112956;28;20020;-63
2021/08/16 07:10:13;;;;;;;7.00;2.80;;;;;;;33.96;24.33;96587.06;5112626;28;20156;-61
2021/08/16 07:12:39;;;;;;;3.85;3.08;;;;;;;34.04;23.02;96586.03;5112860;28;20020;-63
2021/08/16 07:15:05;;;;;;;6.25;3.42;;;;;;;33.82;23.68;96588.91;5112904;28;20031;-61
2021/08/16 07:17:31;;;;;;;5.40;3.58;;;;;;;34.09;25.00;96583.50;5115836;28;20027;-62
2021/08/16 07:19:56;;;;;;;6.78;3.35;;;;;;;34.35;24.10;96587.31;5116692;28;20397;-62
2021/08/16 07:22:22;;;;;;;6.30;3.20;;;;;;;34.59;24.18;96584.97;5116670;28;20031;-61
2021/08/16 07:24:47;;;;;;;6.00;3.40;;;;;;;34.90;23.40;96582.63;5116554;28;20019;-61
2021/08/16 07:27:13;;;;;;;6.30;3.60;;;;;;;35.18;22.53;96588.84;5116561;28;20031;-63
2021/08/16 07:29:39;;;;;;;8.63;4.40;;;;;;;35.35;21.50;96587.31;5116336;28;20024;-63
2021/08/16 07:32:05;;;;;;;4.53;3.13;;;;;;;35.38;22.53;96588.75;5116284;28;20608;-63
2021/08/16 07:34:30;;;;;;;5.35;3.70;;;;;;;35.32;22.88;96587.72;5116244;28;20035;-62
2021/08/16 07:36:56;;;;;;;5.45;3.45;;;;;;;35.54;22.51;96585.53;5116282;28;20023;-62
2021/08/16 07:39:22;;;;;;;5.88;3.55;;;;;;;35.74;22.10;96590.06;5116186;28;20377;-62
2021/08/16 07:41:48;;;;;;;4.57;3.75;;;;;;;35.66;22.21;96590.25;5116135;28;20061;-63
2021/08/16 07:44:15;;;;;;;6.05;3.55;;;;;;;35.78;22.00;96593.16;5116071;28;20023;-63
2021/08/16 07:46:41;;;;;;;8.70;3.40;;;;;;;36.03;21.56;96595.09;5116099;28;20431;-63
2021/08/16 07:49:07;;;;;;;4.60;2.95;;;;;;;36.15;22.25;96592.50;5115983;28;20028;-63
2021/08/16 07:51:33;;;;;;;5.63;3.53;;;;;;;36.01;21.70;96589.88;5115967;28;20024;-61
2021/08/16 07:54:00;;;;;;;5.30;3.28;;;;;;;35.93;21.44;96590.13;5115956;28;20058;-61
2021/08/16 07:56:25;;;;;;;3.80;3.35;;;;;;;36.07;21.67;96585.44;5115920;28;20016;-61
2021/08/16 07:58:51;;;;;;;7.78;3.75;;;;;;;36.25;21.49;96594.75;5115838;28;20073;-62
2021/08/16 08:01:17;;;;;;;5.30;3.70;;;;;;;36.33;21.74;96599.06;5097684;28;20111;-61
2021/08/16 08:03:43;;;;;;;4.90;3.17;;;;;;;36.45;20.91;96593.75;5115759;28;20106;-62
2021/08/16 08:06:09;;;;;;;3.90;3.30;;;;;;;36.51;20.73;96599.09;5115668;28;20431;-61
2021/08/16 08:08:34;;;;;;;8.07;3.38;;;;;;;36.60;21.38;96591.47;5115268;28;20076;-61
2021/08/16 08:11:00;;;;;;;4.32;3.13;;;;;;;36.66;21.57;96600.66;5115633;28;20024;-63
2021/08/16 08:13:29;;;;;;;3.25;2.92;;;;;;;36.48;21.46;96593.28;5115572;28;20076;-63
2021/08/16 08:15:55;;;;;;;4.90;3.65;;;;;;;36.44;21.28;96594.81;5115681;28;20020;-63
2021/08/16 08:18:21;;;;;;;7.35;3.65;;;;;;;35.90;21.29;96582.41;5115576;28;20106;-61
2021/08/16 08:20:47;;;;;;;7.90;3.40;;;;;;;35.64;22.23;96586.94;5115426;28;20094;-61
2021/08/16 08:23:13;;;;;;;4.03;2.90;;;;;;;35.68;22.57;96588.19;5115415;28;20479;-63
2021/08/16 08:25:40;;;;;;;6.15;3.22;;;;;;;35.79;21.67;96592.94;5115263;28;20038;-61
2021/08/16 08:28:15;;;;;;;4.60;3.58;;;;;;;35.69;21.97;96583.63;5115296;28;20396;-61
2021/08/16 08:30:42;;;;;;;8.57;3.75;;;;;;;35.41;21.90;96586.44;5115178;28;20028;-62
2021/08/16 08:33:08;;;;;;;6.47;3.22;;;;;;;35.44;22.30;96585.16;5115124;28;20023;-61
2021/08/16 08:35:33;;;;;;;6.63;3.47;;;;;;;35.50;22.01;96584.31;5115163;28;20483;-63
2021/08/16 08:37:59;;;;;;;8.02;3.40;;;;;;;35.64;22.42;96584.22;5115063;28;20028;-62
2021/08/16 08:40:25;;;;;;;6.78;3.83;;;;;;;35.66;22.24;96587.56;5115008;28;20102;-62
2021/08/16 08:42:54;;;;;;;8.73;3.88;;;;;;;35.70;22.23;96583.41;5096805;28;20107;-62
2021/08/16 08:45:27;;;;;;;5.18;3.28;;;;;;;35.79;22.00;96582.06;5114885;28;20102;-62
2021/08/16 08:47:54;;;;;;;8.27;3.00;;;;;;;35.77;21.96;96583.34;5114863;28;20031;-61
2021/08/16 08:50:21;;;;;;;4.93;3.00;;;;;;;35.31;22.42;96577.94;5114707;28;20100;-61
2021/08/16 08:52:48;;;;;;;4.35;3.47;;;;;;;35.23;22.10;96572.72;5114711;28;20023;-60
2021/08/16 08:55:14;;;;;;;6.68;3.35;;;;;;;35.37;22.46;96570.78;5114852;28;20052;-63
2021/08/16 08:57:41;;;;;;;5.35;3.47;;;;;;;35.53;22.84;96566.72;5114679;28;20102;-61
2021/08/16 09:00:09;;;;;;;6.75;2.97;;;;;;;35.52;21.80;96559.63;5114517;28;20024;-60
2021/08/16 09:02:35;;;;;;;4.30;3.55;;;;;;;35.60;21.28;96559.34;5114458;28;20043;-61
2021/08/16 09:05:03;;;;;;;6.18;3.28;;;;;;;35.36;21.85;96558.25;5114542;28;20070;-61
2021/08/16 09:07:37;;;;;;;5.97;3.50;;;;;;;35.31;20.97;96556.19;5114539;28;20533;-59
2021/08/16 09:10:13;;;;;;;6.78;3.28;;;;;;;35.26;21.66;96551.41;5114185;28;20047;-61
2021/08/16 09:12:40;;;;;;;4.97;3.15;;;;;;;35.07;21.29;96542.25;5114420;28;20023;-62
2021/08/16 09:15:16;;;;;;;4.28;3.30;;;;;;;35.05;21.97;96547.06;5114318;28;20487;-61
2021/08/16 09:17:41;;;;;;;5.47;3.25;;;;;;;35.17;22.20;96547.22;5114355;28;20024;-62
2021/08/16 09:20:18;;;;;;;3.63;3.15;;;;;;;35.25;21.54;96549.75;5114219;28;20043;-62
2021/08/16 09:22:56;;;;;;;7.20;3.22;;;;;;;35.04;21.45;96548.13;5114169;28;20028;-63
2021/08/16 09:25:22;;;;;;;4.63;3.33;;;;;;;34.94;22.28;96550.47;5114213;28;20034;-61
2021/08/16 09:27:48;;;;;;;5.80;3.08;;;;;;;35.10;22.51;96544.53;5114155;28;20499;-62
2021/08/16 09:30:15;;;;;;;5.55;3.03;;;;;;;35.03;22.64;96554.56;5114008;28;20168;-63
2021/08/16 09:32:43;;;;;;;5.85;3.58;;;;;;;34.37;21.05;96541.78;5114073;28;20030;-62
2021/08/16 09:35:11;;;;;;;3.58;2.92;;;;;;;34.25;21.80;96544.28;5113970;28;20380;-61
2021/08/16 09:37:38;;;;;;;4.63;3.35;;;;;;;34.26;22.48;96545.13;5113777;28;20035;-63
2021/08/16 09:40:14;;;;;;;5.75;3.72;;;;;;;33.77;22.42;96550.75;5113598;28;20081;-61
2021/08/16 09:42:48;;;;;;;6.30;3.47;;;;;;;33.56;22.78;96544.41;5113892;28;20030;-62
2021/08/16 09:45:27;;;;;;;5.82;4.03;;;;;;;33.23;22.97;96535.13;5113860;28;20066;-61
2021/08/16 09:47:56;;;;;;;9.25;3.85;;;;;;;32.95;22.66;96537.94;5113805;28;20026;-63
2021/08/16 09:50:22;;;;;;;4.63;3.67;;;;;;;32.22;23.24;96538.09;5113687;28;20035;-61
2021/08/16 09:52:48;;;;;;;6.43;3.90;;;;;;;32.00;23.62;96543.53;5113827;28;20385;-61
2021/08/16 09:55:14;;;;;;;7.43;3.80;;;;;;;32.37;24.45;96535.31;5113672;28;20028;-60
2021/08/16 09:57:40;;;;;;;4.32;3.60;;;;;;;32.75;23.33;96534.06;5113611;28;20034;-61
2021/08/16 10:00:07;;;;;;;7.07;3.88;;;;;;;32.80;23.22;96529.97;5113665;28;20030;-63
2021/08/16 10:02:36;;;;;;;6.20;4.43;;;;;;;32.87;23.85;96528.13;5113515;28;20072;-63
2021/08/16 10:05:02;;;;;;;8.00;4.65;;;;;;;33.01;24.53;96523.56;5113534;28;20027;-60
2021/08/16 10:07:28;;;;;;;7.38;4.72;;;;;;;33.24;24.05;96519.72;5113668;28;20023;-60
2021/08/16 10:09:57;;;;;;;8.13;5.30;;;;;;;32.89;23.22;96513.31;5113168;28;20083;-61
2021/08/16 10:12:24;;;;;;;10.13;5.18;;;;;;;32.74;23.38;96516.19;5113444;28;20036;-62
2021/08/16 10:14:51;;;;;;;5.88;4.80;;;;;;;32.63;23.66;96516.75;5113380;28;20016;-61
2021/08/16 10:17:18;;;;;;;6.22;4.28;;;;;;;32.18;23.68;96522.47;5113395;28;20049;-61
2021/08/16 10:19:45;;;;;;;8.73;4.72;;;;;;;32.01;24.96;96512.78;5113444;28;20055;-62
2021/08/16 10:22:11;;;;;;;13.05;6.40;;;;;;;31.68;25.83;96517.84;5113501;28;20088;-60
2021/08/16 10:24:37;;;;;;;15.50;10.02;;;;;;;31.60;25.31;96513.44;5113567;28;20028;-60
2021/08/16 10:27:08;;;;;;;14.32;10.73;;;;;;;31.70;26.76;96510.41;5113431;28;20376;-61
2021/08/16 10:29:36;;;;;;;15.02;8.40;;;;;;;31.96;25.15;96507.09;5113276;28;20040;-61
2021/08/16 10:32:03;;;;;;;14.95;8.88;;;;;;;32.09;24.87;96508.25;5113367;28;20076;-61
2021/08/16 10:34:33;;;;;;;13.52;10.57;;;;;;;32.30;25.47;96495.69;5113272;28;20054;-63
2021/08/16 10:37:10;;;;;;;17.35;12.48;;;;;;;32.47;25.25;96494.34;5113333;28;20024;-61
2021/08/16 10:39:41;;;;;;;24.55;14.52;;;;;;;32.44;24.42;96497.44;5113262;28;20528;-62
2021/08/16 10:42:14;;;;;;;18.55;13.07;;;;;;;32.44;25.24;96499.34;5113327;28;20015;-62
2021/08/16 10:44:53;;;;;;;17.40;12.52;;;;;;;32.51;25.53;96490.22;5113448;28;20083;-62
2021/08/16 10:47:29;;;;;;;17.80;10.95;;;;;;;32.65;24.92;96501.97;5113231;28;20138;-63
2021/08/16 10:50:18;;;;;;;19.17;14.55;;;;;;;32.42;24.98;96495.97;5113050;28;20039;-62
2021/08/16 10:52:44;;;;;;;14.00;10.60;;;;;;;32.67;25.18;96476.56;5116546;28;20055;-62
2021/08/16 10:55:17;;;;;;;16.13;11.00;;;;;;;32.94;24.45;96482.09;5117076;28;20028;-63
2021/08/16 10:57:44;;;;;;;9.65;6.43;;;;;;;33.05;24.31;96480.72;5117125;28;20039;-63
2021/08/16 11:00:13;;;;;;;8.10;4.88;;;;;;;33.23;24.21;96472.84;5117007;28;20058;-62
2021/08/16 11:02:42;;;;;;;6.15;4.45;;;;;;;33.20;23.46;96472.41;5116928;28;20475;-60
2021/08/16 11:05:09;;;;;;;7.13;4.80;;;;;;;33.03;23.99;96457.34;5116887;28;20027;-63
2021/08/16 11:07:35;;;;;;;8.50;4.65;;;;;;;33.17;24.11;96470.13;5116790;28;20511;-61
2021/08/16 11:10:09;;;;;;;7.30;4.85;;;;;;;33.39;22.96;96468.94;5116656;28;20039;-62
2021/08/16 11:12:38;;;;;;;7.80;5.38;;;;;;;33.29;24.12;96460.38;5116754;28;20038;-61
2021/08/16 11:15:05;;;;;;;8.63;5.13;;;;;;;33.25;23.28;96459.09;5116644;28;20114;-63
2021/08/16 11:17:31;;;;;;;9.68;5.30;;;;;;;33.01;22.99;96453.16;5116642;28;20050;-61
2021/08/16 11:19:59;;;;;;;10.18;4.55;;;;;;;32.57;23.75;96448.03;5116637;28;20027;-61
2021/08/16 11:22:26;;;;;;;9.70;4.40;;;;;;;32.67;25.59;96441.38;5116669;28;20031;-60
2021/08/16 11:24:52;;;;;;;5.05;4.07;;;;;;;32.64;23.64;96445.34;5116423;28;20027;-61
2021/08/16 11:27:23;;;;;;;6.90;4.50;;;;;;;32.61;24.10;96440.31;5116399;28;20469;-62
2021/08/16 11:30:02;;;;;;;6.93;4.68;;;;;;;32.70;25.03;96440.97;5116356;28;20039;-61